Franklin, Pennsylvania
Current Conditions -  °F | °C
As of 9:55 PM on Friday 26 Dec 2014 (Local Time) from KFKL Reporting Station
Clear Clear  
Wind Chill: 34°   Ceiling: Unl
Heat Index: 39°   Visibility: 10mi
Dew Point: 28°   Wind: 7mph
Humidity: 65%   Direction: 210°SSW
Pressure: 30.19"   Gusts: NA
Location:  41.4°N, 79.83°W
Report Text: KFKL 270255Z AUTO 21006KT 10SM CLR 04/M02 A3019 RMK AO1 57003
Loading
Personal Weather Stations






























Interactive Weather Map New forecast layout! Learn more

10-Day Weather Forecast

Advertisements
Track Severe Weather on mobile